sensor_id;sensor_type;location;lat;lon;timestamp;pressure;altitude;pressure_sealevel;temperature;humidity
55687;BME280;41911;52.362;4.978;2023-03-25T00:01:29;100007.14;;;7.33;51.48
55687;BME280;41911;52.362;4.978;2023-03-25T00:02:00;100003.70;;;7.58;50.98
55687;BME280;41911;52.362;4.978;2023-03-25T00:02:32;100012.55;;;7.63;50.83
55687;BME280;41911;52.362;4.978;2023-03-25T00:03:03;99997.29;;;7.43;51.37
55687;BME280;41911;52.362;4.978;2023-03-25T00:03:35;100000.98;;;7.99;50.69
55687;BME280;41911;52.362;4.978;2023-03-25T00:04:07;100006.95;;;8.28;50.34
55687;BME280;41911;52.362;4.978;2023-03-25T00:04:38;100009.55;;;8.09;50.89
55687;BME280;41911;52.362;4.978;2023-03-25T00:05:09;100008.61;;;8.05;51.28
55687;BME280;41911;52.362;4.978;2023-03-25T00:05:40;100001.49;;;8.50;51.20
55687;BME280;41911;52.362;4.978;2023-03-25T00:06:12;100009.25;;;8.04;51.55
55687;BME280;41911;52.362;4.978;2023-03-25T00:06:43;100009.38;;;8.16;52.29
55687;BME280;41911;52.362;4.978;2023-03-25T00:07:14;100009.78;;;7.61;52.92
55687;BME280;41911;52.362;4.978;2023-03-25T00:07:48;100022.25;;;7.81;53.29
55687;BME280;41911;52.362;4.978;2023-03-25T00:08:19;100025.00;;;8.12;52.56
55687;BME280;41911;52.362;4.978;2023-03-25T00:08:50;100023.51;;;7.75;52.92
55687;BME280;41911;52.362;4.978;2023-03-25T00:09:21;100011.24;;;7.74;53.76
55687;BME280;41911;52.362;4.978;2023-03-25T00:09:53;100022.99;;;7.48;54.98
55687;BME280;41911;52.362;4.978;2023-03-25T00:10:24;100015.36;;;7.74;54.65
55687;BME280;41911;52.362;4.978;2023-03-25T00:10:59;100024.44;;;7.66;54.79
55687;BME280;41911;52.362;4.978;2023-03-25T00:11:31;100009.67;;;7.73;54.42
55687;BME280;41911;52.362;4.978;2023-03-25T00:12:04;100003.91;;;7.57;55.35
55687;BME280;41911;52.362;4.978;2023-03-25T00:12:36;100014.36;;;7.66;55.48
55687;BME280;41911;52.362;4.978;2023-03-25T00:13:07;100011.19;;;7.92;55.44
55687;BME280;41911;52.362;4.978;2023-03-25T00:13:38;100005.75;;;8.10;54.67
55687;BME280;41911;52.362;4.978;2023-03-25T00:14:09;100011.83;;;7.83;54.16
55687;BME280;41911;52.362;4.978;2023-03-25T00:14:40;100010.26;;;7.66;54.70
55687;BME280;41911;52.362;4.978;2023-03-25T00:15:12;100018.21;;;7.08;55.74
55687;BME280;41911;52.362;4.978;2023-03-25T00:15:43;100009.63;;;7.14;56.60
55687;BME280;41911;52.362;4.978;2023-03-25T00:16:14;100001.87;;;7.24;56.95
55687;BME280;41911;52.362;4.978;2023-03-25T00:16:46;100011.73;;;6.59;57.40
55687;BME280;41911;52.362;4.978;2023-03-25T00:17:16;100008.61;;;6.99;57.39
55687;BME280;41911;52.362;4.978;2023-03-25T00:17:47;100010.26;;;6.64;57.93
55687;BME280;41911;52.362;4.978;2023-03-25T00:18:19;100012.20;;;6.93;57.87
55687;BME280;41911;52.362;4.978;2023-03-25T00:18:50;99999.66;;;6.93;58.25
55687;BME280;41911;52.362;4.978;2023-03-25T00:19:23;100001.78;;;7.12;57.81
55687;BME280;41911;52.362;4.978;2023-03-25T00:19:55;100012.60;;;7.15;57.87
55687;BME280;41911;52.362;4.978;2023-03-25T00:20:26;100009.69;;;7.12;58.07
55687;BME280;41911;52.362;4.978;2023-03-25T00:20:58;100009.49;;;6.93;58.10
55687;BME280;41911;52.362;4.978;2023-03-25T00:21:29;100008.10;;;7.23;57.69
55687;BME280;41911;52.362;4.978;2023-03-25T00:22:01;100009.65;;;7.20;57.77
55687;BME280;41911;52.362;4.978;2023-03-25T00:22:32;100014.62;;;7.21;56.74
55687;BME280;41911;52.362;4.978;2023-03-25T00:23:03;100021.74;;;6.82;58.38
55687;BME280;41911;52.362;4.978;2023-03-25T00:23:34;100005.69;;;6.65;58.23
55687;BME280;41911;52.362;4.978;2023-03-25T00:24:05;100004.07;;;7.27;57.84
55687;BME280;41911;52.362;4.978;2023-03-25T00:24:36;100004.09;;;7.11;57.51
55687;BME280;41911;52.362;4.978;2023-03-25T00:25:08;100007.02;;;7.52;56.94
55687;BME280;41911;52.362;4.978;2023-03-25T00:25:39;100001.86;;;7.23;57.29
55687;BME280;41911;52.362;4.978;2023-03-25T00:26:11;100004.08;;;7.26;57.56
55687;BME280;41911;52.362;4.978;2023-03-25T00:26:42;100003.76;;;7.16;56.50
55687;BME280;41911;52.362;4.978;2023-03-25T00:27:13;100003.28;;;8.00;56.19
55687;BME280;41911;52.362;4.978;2023-03-25T00:27:45;100007.42;;;7.50;56.18
55687;BME280;41911;52.362;4.978;2023-03-25T00:28:16;100000.29;;;7.36;56.45
55687;BME280;41911;52.362;4.978;2023-03-25T00:28:47;100003.08;;;7.12;56.42
55687;BME280;41911;52.362;4.978;2023-03-25T00:29:19;100003.27;;;7.17;56.75
55687;BME280;41911;52.362;4.978;2023-03-25T00:29:50;100006.18;;;7.51;56.42
55687;BME280;41911;52.362;4.978;2023-03-25T00:30:21;100000.72;;;7.50;56.64
55687;BME280;41911;52.362;4.978;2023-03-25T00:30:52;100001.36;;;7.94;55.94
55687;BME280;41911;52.362;4.978;2023-03-25T00:31:23;100002.73;;;7.35;55.68
55687;BME280;41911;52.362;4.978;2023-03-25T00:31:54;99999.00;;;7.57;54.86
55687;BME280;41911;52.362;4.978;2023-03-25T00:32:25;100006.86;;;7.62;54.69
55687;BME280;41911;52.362;4.978;2023-03-25T00:32:57;100003.28;;;7.52;55.33
55687;BME280;41911;52.362;4.978;2023-03-25T00:33:28;100007.74;;;7.63;54.71
55687;BME280;41911;52.362;4.978;2023-03-25T00:33:59;100008.13;;;7.56;54.90
55687;BME280;41911;52.362;4.978;2023-03-25T00:34:30;99986.71;;;7.25;55.87
55687;BME280;41911;52.362;4.978;2023-03-25T00:35:01;99999.14;;;6.95;56.02
55687;BME280;41911;52.362;4.978;2023-03-25T00:35:32;99999.10;;;7.15;55.62
55687;BME280;41911;52.362;4.978;2023-03-25T00:36:05;99986.88;;;6.84;56.37
55687;BME280;41911;52.362;4.978;2023-03-25T00:36:36;99998.36;;;6.83;56.53
55687;BME280;41911;52.362;4.978;2023-03-25T00:37:08;99995.64;;;6.94;56.60
55687;BME280;41911;52.362;4.978;2023-03-25T00:37:40;99998.52;;;7.20;56.02
55687;BME280;41911;52.362;4.978;2023-03-25T00:38:11;99993.18;;;7.19;55.94
55687;BME280;41911;52.362;4.978;2023-03-25T00:38:42;100002.60;;;7.00;55.63
55687;BME280;41911;52.362;4.978;2023-03-25T00:39:13;99995.42;;;7.28;55.74
55687;BME280;41911;52.362;4.978;2023-03-25T00:39:44;100006.21;;;7.50;55.12
55687;BME280;41911;52.362;4.978;2023-03-25T00:40:18;100000.10;;;7.41;55.52
55687;BME280;41911;52.362;4.978;2023-03-25T00:40:49;99993.02;;;7.84;54.72
55687;BME280;41911;52.362;4.978;2023-03-25T00:41:21;99999.03;;;7.63;54.86
55687;BME280;41911;52.362;4.978;2023-03-25T00:41:53;99995.40;;;7.33;55.23
55687;BME280;41911;52.362;4.978;2023-03-25T00:42:24;100002.06;;;6.86;55.86
55687;BME280;41911;52.362;4.978;2023-03-25T00:42:55;100002.06;;;6.55;56.02
55687;BME280;41911;52.362;4.978;2023-03-25T00:43:26;99996.45;;;6.72;56.18
55687;BME280;41911;52.362;4.978;2023-03-25T00:43:59;100003.75;;;6.67;55.89
55687;BME280;41911;52.362;4.978;2023-03-25T00:44:30;99992.80;;;7.16;55.57
55687;BME280;41911;52.362;4.978;2023-03-25T00:45:02;99998.25;;;6.87;55.77
55687;BME280;41911;52.362;4.978;2023-03-25T00:45:33;100011.85;;;6.68;55.90
55687;BME280;41911;52.362;4.978;2023-03-25T00:46:04;99995.74;;;6.99;55.84
55687;BME280;41911;52.362;4.978;2023-03-25T00:46:35;99991.70;;;6.64;56.34
55687;BME280;41911;52.362;4.978;2023-03-25T00:47:06;99991.79;;;7.04;56.15
55687;BME280;41911;52.362;4.978;2023-03-25T00:47:37;99999.16;;;6.93;56.71
55687;BME280;41911;52.362;4.978;2023-03-25T00:48:08;99991.76;;;6.60;56.13
55687;BME280;41911;52.362;4.978;2023-03-25T00:48:39;99978.15;;;6.46;56.77
55687;BME280;41911;52.362;4.978;2023-03-25T00:49:10;99985.37;;;6.60;56.70
55687;BME280;41911;52.362;4.978;2023-03-25T00:49:41;99988.85;;;6.91;56.72
55687;BME280;41911;52.362;4.978;2023-03-25T00:50:12;99997.91;;;6.36;56.24
55687;BME280;41911;52.362;4.978;2023-03-25T00:50:44;99987.40;;;6.72;55.94
55687;BME280;41911;52.362;4.978;2023-03-25T00:51:15;99992.07;;;6.73;56.51
55687;BME280;41911;52.362;4.978;2023-03-25T00:51:46;99986.42;;;6.18;56.93
55687;BME280;41911;52.362;4.978;2023-03-25T00:52:17;99991.65;;;6.70;56.69
55687;BME280;41911;52.362;4.978;2023-03-25T00:52:48;99990.80;;;7.52;55.13
55687;BME280;41911;52.362;4.978;2023-03-25T00:53:19;99999.30;;;6.84;55.37
55687;BME280;41911;52.362;4.978;2023-03-25T00:53:51;99985.66;;;6.48;56.57
55687;BME280;41911;52.362;4.978;2023-03-25T00:54:22;99992.91;;;5.98;57.22
55687;BME280;41911;52.362;4.978;2023-03-25T00:54:53;99989.07;;;6.63;56.39
55687;BME280;41911;52.362;4.978;2023-03-25T00:55:24;99990.38;;;6.44;56.50
55687;BME280;41911;52.362;4.978;2023-03-25T00:55:57;99992.94;;;6.58;56.55
55687;BME280;41911;52.362;4.978;2023-03-25T00:56:28;100001.14;;;6.85;55.95
55687;BME280;41911;52.362;4.978;2023-03-25T00:56:59;99993.21;;;6.33;56.63
55687;BME280;41911;52.362;4.978;2023-03-25T00:57:31;100015.52;;;6.51;56.59
55687;BME280;41911;52.362;4.978;2023-03-25T00:58:02;99997.31;;;6.37;56.95
55687;BME280;41911;52.362;4.978;2023-03-25T00:58:33;99998.51;;;6.12;57.08
55687;BME280;41911;52.362;4.978;2023-03-25T00:59:05;99998.90;;;6.33;57.42
55687;BME280;41911;52.362;4.978;2023-03-25T00:59:36;99992.57;;;6.17;57.79
55687;BME280;41911;52.362;4.978;2023-03-25T01:00:10;99986.24;;;6.46;57.40
55687;BME280;41911;52.362;4.978;2023-03-25T01:00:41;99991.54;;;6.51;57.45
55687;BME280;41911;52.362;4.978;2023-03-25T01:01:15;99996.40;;;6.48;57.02
55687;BME280;41911;52.362;4.978;2023-03-25T01:01:47;100001.14;;;6.86;56.85
55687;BME280;41911;52.362;4.978;2023-03-25T01:02:19;99980.65;;;6.41;56.84
55687;BME280;41911;52.362;4.978;2023-03-25T01:02:50;99997.48;;;6.44;56.60
55687;BME280;41911;52.362;4.978;2023-03-25T01:03:21;99993.15;;;5.96;57.06
55687;BME280;41911;52.362;4.978;2023-03-25T01:03:53;99990.46;;;6.29;57.14
55687;BME280;41911;52.362;4.978;2023-03-25T01:04:24;99988.31;;;6.53;56.64
55687;BME280;41911;52.362;4.978;2023-03-25T01:04:55;99992.01;;;6.65;56.33
55687;BME280;41911;52.362;4.978;2023-03-25T01:05:26;99994.90;;;6.46;56.98
55687;BME280;41911;52.362;4.978;2023-03-25T01:05:57;99993.59;;;6.24;57.23
55687;BME280;41911;52.362;4.978;2023-03-25T01:06:32;100000.57;;;6.07;57.39
55687;BME280;41911;52.362;4.978;2023-03-25T01:07:04;99989.02;;;6.36;56.98
55687;BME280;41911;52.362;4.978;2023-03-25T01:07:35;99988.54;;;6.40;57.03
55687;BME280;41911;52.362;4.978;2023-03-25T01:08:06;100002.07;;;6.60;57.08
55687;BME280;41911;52.362;4.978;2023-03-25T01:08:38;99982.51;;;7.00;56.53
55687;BME280;41911;52.362;4.978;2023-03-25T01:09:11;99982.58;;;7.11;56.61
55687;BME280;41911;52.362;4.978;2023-03-25T01:09:43;100001.43;;;7.07;55.70
55687;BME280;41911;52.362;4.978;2023-03-25T01:10:17;99998.46;;;6.72;56.25
55687;BME280;41911;52.362;4.978;2023-03-25T01:10:48;99996.68;;;6.67;56.13
55687;BME280;41911;52.362;4.978;2023-03-25T01:11:21;99986.71;;;6.80;56.68
55687;BME280;41911;52.362;4.978;2023-03-25T01:11:52;99985.05;;;6.64;56.80
55687;BME280;41911;52.362;4.978;2023-03-25T01:12:24;99982.46;;;7.20;56.35
55687;BME280;41911;52.362;4.978;2023-03-25T01:12:55;99989.17;;;6.92;56.35
55687;BME280;41911;52.362;4.978;2023-03-25T01:13:26;99988.46;;;6.86;56.02
55687;BME280;41911;52.362;4.978;2023-03-25T01:13:57;99989.47;;;7.00;55.55
55687;BME280;41911;52.362;4.978;2023-03-25T01:14:28;99989.14;;;7.25;55.46
55687;BME280;41911;52.362;4.978;2023-03-25T01:14:59;99999.35;;;7.02;54.94
55687;BME280;41911;52.362;4.978;2023-03-25T01:15:33;99995.34;;;6.32;55.49
55687;BME280;41911;52.362;4.978;2023-03-25T01:16:06;99986.95;;;6.79;54.82
55687;BME280;41911;52.362;4.978;2023-03-25T01:16:38;99993.38;;;6.87;54.79
55687;BME280;41911;52.362;4.978;2023-03-25T01:17:10;99996.02;;;6.85;54.83
55687;BME280;41911;52.362;4.978;2023-03-25T01:17:41;99992.96;;;7.05;54.73
55687;BME280;41911;52.362;4.978;2023-03-25T01:18:12;99990.61;;;6.70;54.39
55687;BME280;41911;52.362;4.978;2023-03-25T01:18:43;99993.45;;;7.46;54.08
55687;BME280;41911;52.362;4.978;2023-03-25T01:19:14;99997.76;;;6.83;54.65
55687;BME280;41911;52.362;4.978;2023-03-25T01:19:46;100002.44;;;6.87;55.51
55687;BME280;41911;52.362;4.978;2023-03-25T01:20:17;99988.89;;;6.65;56.28
55687;BME280;41911;52.362;4.978;2023-03-25T01:20:48;99996.69;;;6.48;56.58
55687;BME280;41911;52.362;4.978;2023-03-25T01:21:19;99995.29;;;6.79;55.60
55687;BME280;41911;52.362;4.978;2023-03-25T01:21:50;99998.42;;;6.39;55.78
55687;BME280;41911;52.362;4.978;2023-03-25T01:22:21;100004.44;;;6.55;55.82
55687;BME280;41911;52.362;4.978;2023-03-25T01:23:34;99994.55;;;6.50;55.76
55687;BME280;41911;52.362;4.978;2023-03-25T01:24:06;99999.47;;;7.05;55.68
55687;BME280;41911;52.362;4.978;2023-03-25T01:24:38;99987.34;;;6.37;56.42
55687;BME280;41911;52.362;4.978;2023-03-25T01:25:09;99990.11;;;6.69;56.44
55687;BME280;41911;52.362;4.978;2023-03-25T01:25:40;99991.04;;;6.28;56.43
55687;BME280;41911;52.362;4.978;2023-03-25T01:26:12;99990.38;;;6.55;56.57
55687;BME280;41911;52.362;4.978;2023-03-25T01:26:44;99999.97;;;6.24;56.77
55687;BME280;41911;52.362;4.978;2023-03-25T01:27:15;99991.34;;;6.68;56.67
55687;BME280;41911;52.362;4.978;2023-03-25T01:27:48;100005.98;;;6.64;56.17
55687;BME280;41911;52.362;4.978;2023-03-25T01:28:19;100018.39;;;6.42;55.93
55687;BME280;41911;52.362;4.978;2023-03-25T01:28:50;99989.99;;;6.93;55.75
55687;BME280;41911;52.362;4.978;2023-03-25T01:29:21;99993.15;;;6.91;55.70
55687;BME280;41911;52.362;4.978;2023-03-25T01:29:52;100001.20;;;6.95;55.76
55687;BME280;41911;52.362;4.978;2023-03-25T01:30:23;99996.19;;;6.80;55.69
55687;BME280;41911;52.362;4.978;2023-03-25T01:30:59;99998.42;;;7.27;55.45
55687;BME280;41911;52.362;4.978;2023-03-25T01:31:30;100001.05;;;6.71;55.60
55687;BME280;41911;52.362;4.978;2023-03-25T01:32:02;99988.96;;;7.36;55.44
55687;BME280;41911;52.362;4.978;2023-03-25T01:32:33;99987.55;;;6.81;55.31
55687;BME280;41911;52.362;4.978;2023-03-25T01:33:03;99998.71;;;6.99;55.86
55687;BME280;41911;52.362;4.978;2023-03-25T01:33:34;100001.57;;;6.85;56.15
55687;BME280;41911;52.362;4.978;2023-03-25T01:34:06;99990.83;;;6.96;55.94
55687;BME280;41911;52.362;4.978;2023-03-25T01:34:38;99994.62;;;6.67;56.48
55687;BME280;41911;52.362;4.978;2023-03-25T01:35:09;99993.79;;;6.45;56.51
55687;BME280;41911;52.362;4.978;2023-03-25T01:35:40;99994.03;;;6.78;56.27
55687;BME280;41911;52.362;4.978;2023-03-25T01:36:11;99984.25;;;6.64;56.92
55687;BME280;41911;52.362;4.978;2023-03-25T01:36:42;99987.29;;;6.25;57.14
55687;BME280;41911;52.362;4.978;2023-03-25T01:37:13;99992.51;;;7.04;57.10
55687;BME280;41911;52.362;4.978;2023-03-25T01:37:44;99991.71;;;6.44;57.40
55687;BME280;41911;52.362;4.978;2023-03-25T01:38:18;99993.82;;;6.55;57.80
55687;BME280;41911;52.362;4.978;2023-03-25T01:38:49;99996.44;;;6.88;57.09
55687;BME280;41911;52.362;4.978;2023-03-25T01:39:21;100000.48;;;6.42;57.63
55687;BME280;41911;52.362;4.978;2023-03-25T01:39:52;99981.18;;;6.48;57.71
55687;BME280;41911;52.362;4.978;2023-03-25T01:40:23;99990.86;;;6.32;58.21
55687;BME280;41911;52.362;4.978;2023-03-25T01:40:55;99994.13;;;6.24;58.48
55687;BME280;41911;52.362;4.978;2023-03-25T01:41:27;99985.24;;;6.31;58.97
55687;BME280;41911;52.362;4.978;2023-03-25T01:42:00;99990.08;;;6.49;58.41
55687;BME280;41911;52.362;4.978;2023-03-25T01:42:36;99985.82;;;6.72;58.65
55687;BME280;41911;52.362;4.978;2023-03-25T01:43:08;99984.51;;;6.63;58.64
55687;BME280;41911;52.362;4.978;2023-03-25T01:43:41;99988.91;;;6.83;58.22
55687;BME280;41911;52.362;4.978;2023-03-25T01:45:14;99990.84;;;6.47;58.50
55687;BME280;41911;52.362;4.978;2023-03-25T01:45:45;99993.73;;;7.09;57.92
55687;BME280;41911;52.362;4.978;2023-03-25T01:46:16;99993.73;;;6.74;58.28
55687;BME280;41911;52.362;4.978;2023-03-25T01:46:48;99984.11;;;6.34;59.15
55687;BME280;41911;52.362;4.978;2023-03-25T01:47:24;99986.21;;;6.08;59.67
55687;BME280;41911;52.362;4.978;2023-03-25T01:48:07;99983.70;;;6.00;59.87
55687;BME280;41911;52.362;4.978;2023-03-25T01:48:41;99988.57;;;6.44;58.68
55687;BME280;41911;52.362;4.978;2023-03-25T01:49:17;99990.07;;;6.09;59.75
55687;BME280;41911;52.362;4.978;2023-03-25T01:49:50;99974.18;;;6.40;59.39
55687;BME280;41911;52.362;4.978;2023-03-25T01:50:22;99977.44;;;6.50;58.79
55687;BME280;41911;52.362;4.978;2023-03-25T01:50:59;99982.12;;;6.23;59.23
55687;BME280;41911;52.362;4.978;2023-03-25T01:51:35;99988.35;;;6.18;59.46
55687;BME280;41911;52.362;4.978;2023-03-25T01:52:13;99977.92;;;6.28;59.27
55687;BME280;41911;52.362;4.978;2023-03-25T01:52:48;99979.28;;;6.28;59.40
55687;BME280;41911;52.362;4.978;2023-03-25T01:53:20;99972.48;;;6.67;58.99
55687;BME280;41911;52.362;4.978;2023-03-25T01:53:52;99975.89;;;6.55;58.70
55687;BME280;41911;52.362;4.978;2023-03-25T01:54:25;99975.54;;;6.54;58.77
55687;BME280;41911;52.362;4.978;2023-03-25T01:54:57;99984.42;;;6.36;58.82
55687;BME280;41911;52.362;4.978;2023-03-25T01:55:30;99970.67;;;6.17;59.45
55687;BME280;41911;52.362;4.978;2023-03-25T01:56:06;99977.73;;;6.25;59.33
55687;BME280;41911;52.362;4.978;2023-03-25T01:56:40;99980.87;;;6.20;59.32
55687;BME280;41911;52.362;4.978;2023-03-25T01:57:19;99973.77;;;6.35;58.32
55687;BME280;41911;52.362;4.978;2023-03-25T01:57:53;99980.65;;;6.70;58.62
55687;BME280;41911;52.362;4.978;2023-03-25T01:58:25;99973.75;;;6.23;58.94
55687;BME280;41911;52.362;4.978;2023-03-25T01:59:02;99986.00;;;6.59;58.62
55687;BME280;41911;52.362;4.978;2023-03-25T01:59:34;99972.85;;;5.96;58.50
55687;BME280;41911;52.362;4.978;2023-03-25T02:00:07;99977.45;;;7.00;57.46
55687;BME280;41911;52.362;4.978;2023-03-25T02:00:44;99974.02;;;7.08;57.31
55687;BME280;41911;52.362;4.978;2023-03-25T02:01:16;99968.79;;;6.78;57.92
55687;BME280;41911;52.362;4.978;2023-03-25T02:01:48;99972.80;;;7.02;57.74
55687;BME280;41911;52.362;4.978;2023-03-25T02:02:19;99978.51;;;6.70;57.76
55687;BME280;41911;52.362;4.978;2023-03-25T02:02:57;99976.57;;;6.48;57.95
55687;BME280;41911;52.362;4.978;2023-03-25T02:03:29;99967.74;;;6.37;58.66
55687;BME280;41911;52.362;4.978;2023-03-25T02:04:02;99975.29;;;6.23;58.55
55687;BME280;41911;52.362;4.978;2023-03-25T02:04:39;99978.71;;;6.37;57.82
55687;BME280;41911;52.362;4.978;2023-03-25T02:05:19;99975.95;;;6.82;57.62
55687;BME280;41911;52.362;4.978;2023-03-25T02:05:58;99975.01;;;6.33;58.21
55687;BME280;41911;52.362;4.978;2023-03-25T02:06:41;99971.63;;;6.58;58.47
55687;BME280;41911;52.362;4.978;2023-03-25T02:07:14;99982.40;;;6.73;57.69
55687;BME280;41911;52.362;4.978;2023-03-25T02:07:48;99976.07;;;7.15;56.67
55687;BME280;41911;52.362;4.978;2023-03-25T02:08:20;99975.30;;;6.70;56.73
55687;BME280;41911;52.362;4.978;2023-03-25T02:08:54;99973.61;;;6.71;57.14
55687;BME280;41911;52.362;4.978;2023-03-25T02:09:26;99983.51;;;6.85;57.42
55687;BME280;41911;52.362;4.978;2023-03-25T02:10:00;99970.32;;;7.01;57.14
55687;BME280;41911;52.362;4.978;2023-03-25T02:10:32;99972.09;;;6.88;57.19
55687;BME280;41911;52.362;4.978;2023-03-25T02:11:07;99973.78;;;6.27;57.92
55687;BME280;41911;52.362;4.978;2023-03-25T02:11:39;99965.55;;;6.64;58.25
55687;BME280;41911;52.362;4.978;2023-03-25T02:12:10;99978.93;;;6.34;58.33
55687;BME280;41911;52.362;4.978;2023-03-25T02:12:41;99976.65;;;6.70;58.10
55687;BME280;41911;52.362;4.978;2023-03-25T02:13:13;99973.54;;;6.63;57.89
55687;BME280;41911;52.362;4.978;2023-03-25T02:13:44;99980.00;;;7.04;57.12
55687;BME280;41911;52.362;4.978;2023-03-25T02:14:19;99977.22;;;6.99;57.15
55687;BME280;41911;52.362;4.978;2023-03-25T02:14:52;99973.06;;;6.54;57.65
55687;BME280;41911;52.362;4.978;2023-03-25T02:15:25;99983.83;;;6.91;57.27
55687;BME280;41911;52.362;4.978;2023-03-25T02:16:13;99966.99;;;6.45;57.85
55687;BME280;41911;52.362;4.978;2023-03-25T02:16:54;99974.39;;;6.72;57.50
55687;BME280;41911;52.362;4.978;2023-03-25T02:17:39;99973.18;;;6.63;57.50
55687;BME280;41911;52.362;4.978;2023-03-25T02:18:24;99969.66;;;6.84;56.78
55687;BME280;41911;52.362;4.978;2023-03-25T02:19:13;99956.29;;;6.94;56.86
55687;BME280;41911;52.362;4.978;2023-03-25T02:20:06;99971.34;;;6.94;56.81
55687;BME280;41911;52.362;4.978;2023-03-25T02:20:58;99964.19;;;7.65;55.76
55687;BME280;41911;52.362;4.978;2023-03-25T02:22:03;99957.02;;;7.05;56.31
55687;BME280;41911;52.362;4.978;2023-03-25T02:22:58;99957.06;;;6.30;57.43
55687;BME280;41911;52.362;4.978;2023-03-25T02:23:58;99963.47;;;6.96;57.23
55687;BME280;41911;52.362;4.978;2023-03-25T02:27:19;99961.79;;;6.85;57.30
55687;BME280;41911;52.362;4.978;2023-03-25T02:27:59;99965.62;;;6.32;57.75
55687;BME280;41911;52.362;4.978;2023-03-25T02:28:36;99960.67;;;6.60;57.73
55687;BME280;41911;52.362;4.978;2023-03-25T02:29:16;99974.95;;;6.49;57.75
55687;BME280;41911;52.362;4.978;2023-03-25T02:30:03;99966.18;;;6.29;57.85
55687;BME280;41911;52.362;4.978;2023-03-25T02:31:00;99968.79;;;5.98;58.58
55687;BME280;41911;52.362;4.978;2023-03-25T02:31:49;99965.52;;;6.56;57.75
55687;BME280;41911;52.362;4.978;2023-03-25T02:32:39;99970.29;;;6.88;57.49
55687;BME280;41911;52.362;4.978;2023-03-25T02:33:35;99962.53;;;6.95;57.10
55687;BME280;41911;52.362;4.978;2023-03-25T02:34:55;99966.87;;;6.87;57.04
55687;BME280;41911;52.362;4.978;2023-03-25T02:35:45;99962.69;;;7.02;57.09
55687;BME280;41911;52.362;4.978;2023-03-25T02:37:58;99960.14;;;6.40;57.35
55687;BME280;41911;52.362;4.978;2023-03-25T02:38:41;99963.43;;;7.06;57.07
55687;BME280;41911;52.362;4.978;2023-03-25T02:39:19;99967.08;;;6.57;57.43
55687;BME280;41911;52.362;4.978;2023-03-25T02:39:55;99956.86;;;6.71;57.27
55687;BME280;41911;52.362;4.978;2023-03-25T02:40:35;99962.22;;;6.37;57.58
55687;BME280;41911;52.362;4.978;2023-03-25T02:41:13;99963.18;;;6.67;57.39
55687;BME280;41911;52.362;4.978;2023-03-25T02:41:50;99953.98;;;6.94;57.16
55687;BME280;41911;52.362;4.978;2023-03-25T02:42:30;99962.02;;;6.74;57.46
55687;BME280;41911;52.362;4.978;2023-03-25T02:43:09;99960.91;;;6.65;57.43
55687;BME280;41911;52.362;4.978;2023-03-25T02:43:47;99963.92;;;6.57;56.99
55687;BME280;41911;52.362;4.978;2023-03-25T02:44:29;99957.36;;;6.76;56.87
55687;BME280;41911;52.362;4.978;2023-03-25T02:45:04;99962.94;;;6.89;57.31
55687;BME280;41911;52.362;4.978;2023-03-25T02:45:41;99958.50;;;6.57;57.92
55687;BME280;41911;52.362;4.978;2023-03-25T02:46:17;99965.87;;;6.69;57.70
55687;BME280;41911;52.362;4.978;2023-03-25T02:46:55;99972.38;;;6.27;57.85
55687;BME280;41911;52.362;4.978;2023-03-25T02:47:33;99959.99;;;7.13;57.12
55687;BME280;41911;52.362;4.978;2023-03-25T02:48:09;99959.49;;;7.01;57.17
55687;BME280;41911;52.362;4.978;2023-03-25T02:48:47;99962.69;;;6.78;56.82
55687;BME280;41911;52.362;4.978;2023-03-25T02:49:25;99959.72;;;6.97;56.20
55687;BME280;41911;52.362;4.978;2023-03-25T02:50:04;99960.39;;;6.87;56.38
55687;BME280;41911;52.362;4.978;2023-03-25T02:50:39;99961.64;;;6.61;56.54
55687;BME280;41911;52.362;4.978;2023-03-25T02:51:15;99963.39;;;6.77;56.47
55687;BME280;41911;52.362;4.978;2023-03-25T02:51:54;99955.18;;;6.92;56.66
55687;BME280;41911;52.362;4.978;2023-03-25T02:52:31;99959.06;;;6.91;56.40
55687;BME280;41911;52.362;4.978;2023-03-25T02:53:08;99960.66;;;6.79;56.42
55687;BME280;41911;52.362;4.978;2023-03-25T02:53:44;99965.33;;;6.67;56.33
55687;BME280;41911;52.362;4.978;2023-03-25T02:54:18;99945.66;;;6.29;57.39
55687;BME280;41911;52.362;4.978;2023-03-25T02:54:52;99953.74;;;6.26;57.15
55687;BME280;41911;52.362;4.978;2023-03-25T02:55:27;99949.14;;;7.04;57.14
55687;BME280;41911;52.362;4.978;2023-03-25T02:56:02;99961.67;;;6.41;57.13
55687;BME280;41911;52.362;4.978;2023-03-25T02:56:40;99954.87;;;6.47;57.15
55687;BME280;41911;52.362;4.978;2023-03-25T02:57:15;99957.78;;;6.80;56.83
55687;BME280;41911;52.362;4.978;2023-03-25T02:57:49;99946.95;;;6.28;57.12
55687;BME280;41911;52.362;4.978;2023-03-25T02:58:21;99950.97;;;6.37;57.59
55687;BME280;41911;52.362;4.978;2023-03-25T02:58:54;99965.73;;;6.25;57.45
55687;BME280;41911;52.362;4.978;2023-03-25T02:59:28;99954.00;;;6.59;57.74
55687;BME280;41911;52.362;4.978;2023-03-25T03:00:01;99953.75;;;6.46;58.16
55687;BME280;41911;52.362;4.978;2023-03-25T03:00:33;99948.74;;;6.45;57.90
55687;BME280;41911;52.362;4.978;2023-03-25T03:01:05;99953.93;;;6.93;57.19
55687;BME280;41911;52.362;4.978;2023-03-25T03:01:36;99945.76;;;6.99;57.25
55687;BME280;41911;52.362;4.978;2023-03-25T03:02:14;99947.47;;;6.70;57.01
55687;BME280;41911;52.362;4.978;2023-03-25T03:02:53;99952.31;;;6.71;56.95
55687;BME280;41911;52.362;4.978;2023-03-25T03:03:26;99946.92;;;6.28;57.38
55687;BME280;41911;52.362;4.978;2023-03-25T03:03:57;99961.52;;;7.03;56.92
55687;BME280;41911;52.362;4.978;2023-03-25T03:04:28;99948.04;;;7.09;56.53
55687;BME280;41911;52.362;4.978;2023-03-25T03:04:59;99945.35;;;7.07;55.86
55687;BME280;41911;52.362;4.978;2023-03-25T03:05:32;99946.06;;;6.91;55.98
55687;BME280;41911;52.362;4.978;2023-03-25T03:06:05;99940.18;;;7.00;56.04
55687;BME280;41911;52.362;4.978;2023-03-25T03:06:39;99946.29;;;6.51;56.50
55687;BME280;41911;52.362;4.978;2023-03-25T03:07:17;99951.56;;;6.64;57.17
55687;BME280;41911;52.362;4.978;2023-03-25T03:08:01;99955.05;;;6.78;56.63
55687;BME280;41911;52.362;4.978;2023-03-25T03:08:53;99944.60;;;7.04;55.87